createdAt,value
2019-05-21T00:00:06.029Z,925.5
2019-05-21T00:01:07.426Z,925.5
2019-05-21T00:02:08.837Z,925.5
2019-05-21T00:03:09.592Z,925.5
2019-05-21T00:04:11.016Z,925.5
2019-05-21T00:05:12.406Z,925.5
2019-05-21T00:06:13.804Z,925.6
2019-05-21T00:07:15.215Z,925.5
2019-05-21T00:08:16.348Z,925.4
2019-05-21T00:09:17.746Z,925.4
2019-05-21T00:10:19.152Z,925.5
2019-05-21T00:11:20.279Z,925.5
2019-05-21T00:12:21.440Z,925.5
2019-05-21T00:13:21.928Z,925.6
2019-05-21T00:14:23.050Z,925.5
2019-05-21T00:15:24.182Z,925.6
2019-05-21T00:16:25.580Z,925
2019-05-21T00:17:27.001Z,925.6
2019-05-21T00:18:28.392Z,925.6
2019-05-21T00:19:29.786Z,925.5
2019-05-21T00:20:31.182Z,925.6
2019-05-21T00:21:32.576Z,925.2
2019-05-21T00:22:34.037Z,925.5
2019-05-21T00:23:34.828Z,925.4
2019-05-21T00:24:36.281Z,925.6
2019-05-21T00:25:37.712Z,925.6
2019-05-21T00:26:38.806Z,925.5
2019-05-21T00:27:40.242Z,925.2
2019-05-21T00:28:41.620Z,925.4
2019-05-21T00:29:43.018Z,925.5
2019-05-21T00:30:44.408Z,925.5
2019-05-21T00:31:45.818Z,925.5
2019-05-21T00:32:46.975Z,925.6
2019-05-21T00:33:47.463Z,925.6
2019-05-21T00:34:49.882Z,925.6
2019-05-21T00:35:50.268Z,925.5
2019-05-21T00:36:51.433Z,925.6
2019-05-21T00:37:52.886Z,925.5
2019-05-21T00:38:57.498Z,925.6
2019-05-21T00:39:54.596Z,925.5
2019-05-21T00:40:55.993Z,925.6
2019-05-21T00:41:57.386Z,925.5
2019-05-21T00:42:58.813Z,925.5
2019-05-21T00:43:59.578Z,925.5
2019-05-21T00:45:00.968Z,925.5
2019-05-21T00:46:02.355Z,925.5
2019-05-21T00:47:03.757Z,925.2
2019-05-21T00:48:05.822Z,925.4
2019-05-21T00:49:06.282Z,925.4
2019-05-21T00:50:07.679Z,925.3
2019-05-21T00:51:08.808Z,925.2
2019-05-21T00:52:09.933Z,925.4
2019-05-21T00:53:11.074Z,925.4
2019-05-21T00:54:11.833Z,925.3
2019-05-21T00:55:13.228Z,925.5
2019-05-21T00:56:14.623Z,925.4
2019-05-21T00:57:17.100Z,925.4
2019-05-21T00:58:17.546Z,925.4
2019-05-21T00:59:18.941Z,925.5
2019-05-21T01:00:20.696Z,925.5
2019-05-21T01:01:21.090Z,925.5
2019-05-21T01:02:22.492Z,925.4
2019-05-21T01:03:23.936Z,925.5
2019-05-21T01:04:24.424Z,925.4
2019-05-21T01:05:25.825Z,925.4
2019-05-21T01:06:27.219Z,925.4
2019-05-21T01:07:28.609Z,925.5
2019-05-21T01:08:30.030Z,925.6
2019-05-21T01:09:31.162Z,925.5
2019-05-21T01:10:32.279Z,925.5
2019-05-21T01:11:33.679Z,925.5
2019-05-21T01:12:35.082Z,925.5
2019-05-21T01:13:36.215Z,923.7
2019-05-21T01:14:36.977Z,925.5
2019-05-21T01:15:38.369Z,925.4
2019-05-21T01:16:39.505Z,924.8
2019-05-21T01:17:40.632Z,925.4
2019-05-21T01:18:42.088Z,925.5
2019-05-21T01:19:43.457Z,925.5
2019-05-21T01:20:44.853Z,925.3
2019-05-21T01:21:46.269Z,925.4
2019-05-21T01:22:47.652Z,925.5
2019-05-21T01:23:48.804Z,925.6
2019-05-21T01:24:49.575Z,925.4
2019-05-21T01:25:50.969Z,925.5
2019-05-21T01:26:52.364Z,925.4
2019-05-21T01:27:53.763Z,925.5
2019-05-21T01:28:55.170Z,925.5
2019-05-21T01:29:56.311Z,925.6
2019-05-21T01:30:57.430Z,925.5
2019-05-21T01:31:58.559Z,925.5
2019-05-21T01:32:59.957Z,925.5
2019-05-21T01:34:01.372Z,925.5
2019-05-21T01:35:15.942Z,925.6
2019-05-21T01:36:02.795Z,925.6
2019-05-21T01:37:03.919Z,925.7
2019-05-21T01:38:05.061Z,925.6
2019-05-21T01:39:06.215Z,925.6
2019-05-21T01:40:07.616Z,925.6
2019-05-21T01:41:09.009Z,925.7
2019-05-21T01:42:10.136Z,925.6
2019-05-21T01:43:11.537Z,925.6
2019-05-21T01:44:12.960Z,925.4
2019-05-21T01:45:13.715Z,925.6
2019-05-21T01:46:14.848Z,925.7
2019-05-21T01:47:15.980Z,925.6
2019-05-21T01:48:17.381Z,925.5
2019-05-21T01:49:18.809Z,925.6
2019-05-21T01:50:20.198Z,925.7
2019-05-21T01:51:21.331Z,925.7
2019-05-21T01:52:22.726Z,925.6
2019-05-21T01:53:24.123Z,925.7
2019-05-21T01:54:25.325Z,925.7
2019-05-21T01:55:26.080Z,925.7
2019-05-21T01:56:27.208Z,925.6
2019-05-21T01:57:28.607Z,925.6
2019-05-21T01:58:30.011Z,925.7
2019-05-21T01:59:31.208Z,925.7
2019-05-21T02:00:32.565Z,925.7
2019-05-21T02:01:33.956Z,925.6
2019-05-21T02:02:35.359Z,925.7
2019-05-21T02:03:36.481Z,925.7
2019-05-21T02:04:37.640Z,925.7
2019-05-21T02:05:38.135Z,925.6
2019-05-21T02:06:39.526Z,925.5
2019-05-21T02:07:40.923Z,925.6
2019-05-21T02:08:42.045Z,925.5
2019-05-21T02:09:43.209Z,925.7
2019-05-21T02:10:44.601Z,925.5
2019-05-21T02:11:45.989Z,925.6
2019-05-21T02:12:47.387Z,925.6
2019-05-21T02:13:48.781Z,925.4
2019-05-21T02:14:50.208Z,925.5
2019-05-21T02:15:50.707Z,925.6
2019-05-21T02:16:51.830Z,925.6
2019-05-21T02:17:53.241Z,925.2
2019-05-21T02:18:54.631Z,925.6
2019-05-21T02:19:55.785Z,925.6
2019-05-21T02:20:57.192Z,925.6
2019-05-21T02:21:58.573Z,925.6
2019-05-21T02:22:59.965Z,925.6
2019-05-21T02:24:01.376Z,925.4
2019-05-21T02:25:02.793Z,925.4
2019-05-21T02:26:03.554Z,925.5
2019-05-21T02:27:04.957Z,925.3
2019-05-21T02:28:06.339Z,925.6
2019-05-21T02:29:07.972Z,925.6
2019-05-21T02:30:10.050Z,925.5
2019-05-21T02:31:09.431Z,925.6
2019-05-21T02:32:10.827Z,925.5
2019-05-21T02:33:12.221Z,925.6
2019-05-21T02:34:13.613Z,923.9
2019-05-21T02:35:15.029Z,925.6
2019-05-21T02:36:15.314Z,925.6
2019-05-21T02:37:16.709Z,924.7
2019-05-21T02:38:18.096Z,925.6
2019-05-21T02:39:19.488Z,925.7
2019-05-21T02:40:20.921Z,925.5
2019-05-21T02:41:22.300Z,925.7
2019-05-21T02:42:23.702Z,924
2019-05-21T02:43:25.092Z,925.7
2019-05-21T02:44:26.492Z,925.6
2019-05-21T02:45:27.914Z,925.5
2019-05-21T02:46:28.421Z,925.6
2019-05-21T02:47:29.553Z,925.5
2019-05-21T02:48:30.681Z,925.6
2019-05-21T02:49:32.078Z,925.7
2019-05-21T02:50:33.499Z,925.7
2019-05-21T02:51:34.883Z,925.7
2019-05-21T02:52:36.011Z,925.7
2019-05-21T02:53:40.103Z,925.8
2019-05-21T02:54:41.238Z,925.6
2019-05-21T02:55:39.034Z,925.8
2019-05-21T02:56:39.774Z,925.8
2019-05-21T02:57:41.216Z,925.8
2019-05-21T02:58:42.340Z,924.7
2019-05-21T02:59:43.470Z,925.6
2019-05-21T03:00:44.624Z,925.6
2019-05-21T03:01:46.024Z,925.8
2019-05-21T03:02:47.411Z,925.8
2019-05-21T03:03:48.819Z,925.6
2019-05-21T03:04:50.196Z,925.8
2019-05-21T03:05:51.621Z,925.8
2019-05-21T03:06:52.122Z,925.7
2019-05-21T03:07:53.253Z,925.7
2019-05-21T03:08:54.384Z,925.7
2019-05-21T03:09:55.780Z,925.8
2019-05-21T03:10:57.198Z,925.9
2019-05-21T03:11:58.583Z,925.9
2019-05-21T03:12:59.985Z,925.9
2019-05-21T03:14:01.386Z,925.7
2019-05-21T03:15:02.843Z,926
2019-05-21T03:16:03.994Z,926
2019-05-21T03:17:04.492Z,925.9
2019-05-21T03:18:05.620Z,925.9
2019-05-21T03:19:06.751Z,926
2019-05-21T03:20:08.158Z,926
2019-05-21T03:21:09.571Z,925.9
2019-05-21T03:22:10.976Z,926
2019-05-21T03:23:12.093Z,926
2019-05-21T03:24:13.508Z,926
2019-05-21T03:25:14.882Z,926
2019-05-21T03:26:16.125Z,926
2019-05-21T03:27:16.862Z,926
2019-05-21T03:28:17.984Z,926.1
2019-05-21T03:29:19.124Z,926
2019-05-21T03:30:20.265Z,926.1
2019-05-21T03:31:21.461Z,926.1
2019-05-21T03:32:22.822Z,926
2019-05-21T03:33:23.955Z,926.1
2019-05-21T03:34:25.415Z,926.1
2019-05-21T03:35:26.536Z,926.1
2019-05-21T03:36:33.048Z,926.2
2019-05-21T03:37:28.538Z,926.2
2019-05-21T03:38:29.931Z,926.2
2019-05-21T03:39:31.329Z,926.2
2019-05-21T03:40:32.717Z,926.2
2019-05-21T03:41:33.891Z,926.2
2019-05-21T03:42:35.013Z,926.2
2019-05-21T03:43:36.130Z,926.2
2019-05-21T03:44:37.258Z,926.2
2019-05-21T03:45:38.384Z,926.3
2019-05-21T03:46:39.533Z,926.4
2019-05-21T03:47:40.308Z,926.3
2019-05-21T03:48:41.694Z,926.4
2019-05-21T03:49:42.828Z,926.3
2019-05-21T03:50:43.954Z,926.4
2019-05-21T03:51:45.106Z,926.4
2019-05-21T03:52:46.234Z,926.4
2019-05-21T03:53:47.354Z,926.4
2019-05-21T03:54:48.494Z,926.4
2019-05-21T03:55:49.874Z,926.5
2019-05-21T03:56:51.295Z,926.5
2019-05-21T03:57:51.822Z,926.5
2019-05-21T03:58:53.187Z,926.4
2019-05-21T03:59:54.569Z,926.5
2019-05-21T04:00:55.695Z,926.6
2019-05-21T04:01:57.099Z,926.6
2019-05-21T04:02:58.497Z,926.6
2019-05-21T04:03:59.636Z,926.6
2019-05-21T04:05:00.758Z,926.6
2019-05-21T04:06:01.901Z,926.6
2019-05-21T04:07:03.024Z,926.7
2019-05-21T04:08:03.800Z,926.4
2019-05-21T04:09:05.199Z,926.6
2019-05-21T04:10:06.320Z,926.7
2019-05-21T04:11:07.456Z,926.6
2019-05-21T04:12:08.609Z,926.6
2019-05-21T04:13:09.880Z,926.6
2019-05-21T04:14:11.076Z,926.6
2019-05-21T04:15:12.194Z,926.5
2019-05-21T04:16:13.318Z,926.6
2019-05-21T04:17:14.737Z,926.6
2019-05-21T04:18:15.506Z,926.6
2019-05-21T04:19:16.635Z,926.6
2019-05-21T04:20:17.761Z,926.6
2019-05-21T04:21:18.884Z,926.5
2019-05-21T04:22:20.300Z,926.6
2019-05-21T04:23:21.736Z,926.6
2019-05-21T04:24:23.134Z,926.6
2019-05-21T04:25:24.270Z,926.7
2019-05-21T04:26:25.379Z,926.7
2019-05-21T04:27:26.815Z,926.8
2019-05-21T04:28:27.578Z,926.7
2019-05-21T04:29:28.980Z,926.8
2019-05-21T04:30:30.374Z,926.8
2019-05-21T04:31:32.787Z,926.9
2019-05-21T04:32:32.914Z,926.9
2019-05-21T04:33:34.052Z,926.9
2019-05-21T04:34:35.179Z,926.8
2019-05-21T04:35:36.322Z,926.8
2019-05-21T04:36:37.445Z,926.9
2019-05-21T04:37:38.582Z,926.8
2019-05-21T04:38:39.081Z,926.8
2019-05-21T04:39:40.529Z,926.9
2019-05-21T04:40:41.148Z,926.9
2019-05-21T04:41:42.533Z,927
2019-05-21T04:42:43.946Z,926.9
2019-05-21T04:43:45.078Z,926.9
2019-05-21T04:44:46.489Z,926.8
2019-05-21T04:45:47.875Z,926.9
2019-05-21T04:46:49.279Z,926.9
2019-05-21T04:47:50.719Z,927
2019-05-21T04:48:51.438Z,927
2019-05-21T04:49:52.831Z,927
2019-05-21T04:50:54.225Z,927
2019-05-21T04:51:55.355Z,926.9
2019-05-21T04:52:56.795Z,926.9
2019-05-21T04:53:57.936Z,926.9
2019-05-21T04:54:59.061Z,926.9
2019-05-21T04:56:00.189Z,926.9
2019-05-21T04:57:01.322Z,926.9
2019-05-21T04:58:02.465Z,926.9
2019-05-21T04:59:03.235Z,926.9
2019-05-21T05:00:04.386Z,927
2019-05-21T05:01:05.487Z,926.9
2019-05-21T05:02:06.615Z,926.8
2019-05-21T05:03:07.768Z,926.8
2019-05-21T05:04:08.891Z,925.3
2019-05-21T05:05:10.015Z,926.9
2019-05-21T05:06:11.146Z,926.8
2019-05-21T05:07:26.652Z,927
2019-05-21T05:08:13.795Z,927
2019-05-21T05:09:14.552Z,926.9
2019-05-21T05:10:15.947Z,927
2019-05-21T05:11:17.341Z,927
2019-05-21T05:12:18.477Z,927
2019-05-21T05:13:19.623Z,927.1
2019-05-21T05:14:21.013Z,927.1
2019-05-21T05:15:22.409Z,927.2
2019-05-21T05:16:23.808Z,926.9
2019-05-21T05:17:25.210Z,927.1
2019-05-21T05:18:26.611Z,927.1
2019-05-21T05:19:27.394Z,927.2
2019-05-21T05:20:28.768Z,927.2
2019-05-21T05:21:29.892Z,927.2
2019-05-21T05:22:31.301Z,927.2
2019-05-21T05:23:32.719Z,927.2
2019-05-21T05:24:36.921Z,927.2
2019-05-21T05:25:35.412Z,927.2
2019-05-21T05:26:36.851Z,927.1
2019-05-21T05:27:38.261Z,927.2
2019-05-21T05:28:39.405Z,927.2
2019-05-21T05:29:39.920Z,927.2
2019-05-21T05:30:41.035Z,927.1
2019-05-21T05:31:42.431Z,927.2
2019-05-21T05:32:43.829Z,927.3
2019-05-21T05:33:44.973Z,927.2
2019-05-21T05:34:46.363Z,927.2
2019-05-21T05:35:47.775Z,927.3
2019-05-21T05:36:49.167Z,927.3
2019-05-21T05:37:50.293Z,927.4
2019-05-21T05:38:51.703Z,927.2
2019-05-21T05:39:52.469Z,927.3
2019-05-21T05:40:53.856Z,927.3
2019-05-21T05:41:55.265Z,927.4
2019-05-21T05:42:56.383Z,927.4
2019-05-21T05:43:57.548Z,927.4
2019-05-21T05:44:58.669Z,927.4
2019-05-21T05:46:00.061Z,927.4
2019-05-21T05:47:01.457Z,927.4
2019-05-21T05:48:02.851Z,927.4
2019-05-21T05:49:07.204Z,927.4
2019-05-21T05:50:04.943Z,927.5
2019-05-21T05:51:06.068Z,927.5
2019-05-21T05:52:07.199Z,927.5
2019-05-21T05:53:08.618Z,927.4
2019-05-21T05:54:13.133Z,927.5
2019-05-21T05:55:11.505Z,927.5
2019-05-21T05:56:12.895Z,927.5
2019-05-21T05:57:14.289Z,927.4
2019-05-21T05:58:15.710Z,927.5
2019-05-21T05:59:19.974Z,927.5
2019-05-21T06:00:17.703Z,927.6
2019-05-21T06:01:19.096Z,927.5
2019-05-21T06:02:20.491Z,927.5
2019-05-21T06:03:21.631Z,927.5
2019-05-21T06:04:22.767Z,927.5
2019-05-21T06:05:23.887Z,927.6
2019-05-21T06:06:25.013Z,927.6
2019-05-21T06:07:26.418Z,927.2
2019-05-21T06:08:27.829Z,927.5
2019-05-21T06:09:29.231Z,927.6
2019-05-21T06:10:30.074Z,927.6
2019-05-21T06:11:31.200Z,927.6
2019-05-21T06:12:32.607Z,927.6
2019-05-21T06:13:34.022Z,927.5
2019-05-21T06:14:35.409Z,927.6
2019-05-21T06:15:36.804Z,927.4
2019-05-21T06:16:38.198Z,927.5
2019-05-21T06:17:39.592Z,927.7
2019-05-21T06:18:41.232Z,926.7
2019-05-21T06:19:41.623Z,927.6
2019-05-21T06:20:42.384Z,927.7
2019-05-21T06:21:43.780Z,927.7
2019-05-21T06:22:44.907Z,927.7
2019-05-21T06:23:46.053Z,927.8
2019-05-21T06:24:47.183Z,927.7
2019-05-21T06:25:48.314Z,927.7
2019-05-21T06:26:49.437Z,927.7
2019-05-21T06:27:50.846Z,927.8
2019-05-21T06:28:52.262Z,926.1
2019-05-21T06:29:53.656Z,927.8
2019-05-21T06:30:54.409Z,927.7
2019-05-21T06:31:55.812Z,927.8
2019-05-21T06:32:57.209Z,927.9
2019-05-21T06:33:58.700Z,927.8
2019-05-21T06:35:00.091Z,927.9
2019-05-21T06:36:01.517Z,927.7
2019-05-21T06:37:02.948Z,927.8
2019-05-21T06:38:16.390Z,927.8
2019-05-21T06:39:05.320Z,927.8
2019-05-21T06:40:06.450Z,927.8
2019-05-21T06:41:07.211Z,928
2019-05-21T06:42:08.604Z,927.9
2019-05-21T06:43:09.734Z,928
2019-05-21T06:44:11.153Z,928
2019-05-21T06:45:12.545Z,928
2019-05-21T06:46:13.944Z,928
2019-05-21T06:47:15.340Z,928
2019-05-21T06:48:16.736Z,927.9
2019-05-21T06:49:18.148Z,928
2019-05-21T06:50:19.546Z,928
2019-05-21T06:51:20.058Z,928
2019-05-21T06:52:21.427Z,928.1
2019-05-21T06:53:22.832Z,927.9
2019-05-21T06:54:23.990Z,927.9
2019-05-21T06:55:25.373Z,928.1
2019-05-21T06:56:26.765Z,928
2019-05-21T06:57:28.166Z,928
2019-05-21T06:58:29.567Z,928.1
2019-05-21T06:59:31.019Z,928.1
2019-05-21T07:00:32.412Z,928.1
2019-05-21T07:01:35.185Z,928.1
2019-05-21T07:02:34.567Z,928.1
2019-05-21T07:03:35.709Z,928
2019-05-21T07:04:36.843Z,928
2019-05-21T07:05:37.975Z,928.1
2019-05-21T07:06:39.110Z,926.5
2019-05-21T07:07:40.232Z,927.9
2019-05-21T07:08:41.623Z,928.1
2019-05-21T07:09:43.034Z,928.2
2019-05-21T07:10:44.432Z,928
2019-05-21T07:11:45.274Z,928.2
2019-05-21T07:12:46.427Z,928.2
2019-05-21T07:13:47.558Z,928.2
2019-05-21T07:14:48.706Z,928.2
2019-05-21T07:15:50.106Z,928
2019-05-21T07:16:51.507Z,928.2
2019-05-21T07:17:52.902Z,926.5
2019-05-21T07:18:54.299Z,928.2
2019-05-21T07:19:55.702Z,928.2
2019-05-21T07:20:57.098Z,928.1
2019-05-21T07:22:11.361Z,928.2
2019-05-21T07:22:58.764Z,928.3
2019-05-21T07:23:59.213Z,928.3
2019-05-21T07:25:00.355Z,928.2
2019-05-21T07:26:01.825Z,928.1
2019-05-21T07:27:03.190Z,928.2
2019-05-21T07:28:04.582Z,928.3
2019-05-21T07:29:06.125Z,928.3
2019-05-21T07:30:06.555Z,928.3
2019-05-21T07:31:07.954Z,928.4
2019-05-21T07:32:08.785Z,928.3
2019-05-21T07:33:09.924Z,928.3
2019-05-21T07:34:11.056Z,928.3
2019-05-21T07:35:12.472Z,928.2
2019-05-21T07:36:13.857Z,928.4
2019-05-21T07:37:15.258Z,928.3
2019-05-21T07:38:16.658Z,928.4
2019-05-21T07:39:18.092Z,928.3
2019-05-21T07:40:19.480Z,928.4
2019-05-21T07:41:20.874Z,928.3
2019-05-21T07:42:21.648Z,928.4
2019-05-21T07:43:23.051Z,928.4
2019-05-21T07:44:24.460Z,928.4
2019-05-21T07:45:25.882Z,928.4
2019-05-21T07:46:27.005Z,928.5
2019-05-21T07:47:28.404Z,928.2
2019-05-21T07:48:29.803Z,928.4
2019-05-21T07:49:30.958Z,928.3
2019-05-21T07:50:32.350Z,928.3
2019-05-21T07:51:33.755Z,928.3
2019-05-21T07:52:34.515Z,928.4
2019-05-21T07:53:35.905Z,928.3
2019-05-21T07:54:37.320Z,928.4
2019-05-21T07:55:38.708Z,928.2
2019-05-21T07:56:40.109Z,928.4
2019-05-21T07:57:41.228Z,928.3
2019-05-21T07:58:42.364Z,928.4
2019-05-21T07:59:43.762Z,928.4
2019-05-21T08:00:45.162Z,928.5
2019-05-21T08:01:46.284Z,928.4
2019-05-21T08:02:47.052Z,928.5
2019-05-21T08:03:48.474Z,928.5
2019-05-21T08:04:49.875Z,928.5
2019-05-21T08:05:51.026Z,928.5
2019-05-21T08:06:52.500Z,928.3
2019-05-21T08:07:53.893Z,928.5
2019-05-21T08:09:11.293Z,928.3
2019-05-21T08:09:55.817Z,928.6
2019-05-21T08:10:57.219Z,928.5
2019-05-21T08:11:58.347Z,928.6
2019-05-21T08:12:59.066Z,928.5
2019-05-21T08:14:00.194Z,928.5
2019-05-21T08:15:01.610Z,928.6
2019-05-21T08:16:03.013Z,928.4
2019-05-21T08:17:04.412Z,928.6
2019-05-21T08:18:05.812Z,928.7
2019-05-21T08:19:07.200Z,928.6
2019-05-21T08:20:10.172Z,928.6
2019-05-21T08:21:09.714Z,928.7
2019-05-21T08:22:11.109Z,928.7
2019-05-21T08:23:11.627Z,928.7
2019-05-21T08:24:12.758Z,928.7
2019-05-21T08:25:15.096Z,928.7
2019-05-21T08:26:15.515Z,928.7
2019-05-21T08:27:16.918Z,927.7
2019-05-21T08:28:18.319Z,928.6
2019-05-21T08:29:19.708Z,928.7
2019-05-21T08:30:21.121Z,928.5
2019-05-21T08:31:22.252Z,928.7
2019-05-21T08:32:23.370Z,928.7
2019-05-21T08:33:24.497Z,928.7
2019-05-21T08:34:24.611Z,928.8
2019-05-21T08:35:25.763Z,928.7
2019-05-21T08:36:26.894Z,928.6
2019-05-21T08:37:28.022Z,928.7
2019-05-21T08:38:29.161Z,928.8
2019-05-21T08:39:30.285Z,928.7
2019-05-21T08:40:31.426Z,928.8
2019-05-21T08:41:32.562Z,928.6
2019-05-21T08:42:33.687Z,928.7
2019-05-21T08:43:34.443Z,928.8
2019-05-21T08:44:35.842Z,928.8
2019-05-21T08:45:37.256Z,928.8
2019-05-21T08:46:38.660Z,928.8
2019-05-21T08:47:40.052Z,928.9
2019-05-21T08:48:41.454Z,928.8
2019-05-21T08:49:44.236Z,928.9
2019-05-21T08:50:43.685Z,928.8
2019-05-21T08:51:45.070Z,929
2019-05-21T08:52:46.475Z,928.7
2019-05-21T08:53:47.228Z,928.9
2019-05-21T08:54:48.810Z,928.9
2019-05-21T08:55:49.207Z,928.9
2019-05-21T08:56:50.613Z,928.9
2019-05-21T08:58:06.062Z,929
2019-05-21T08:58:53.165Z,929
2019-05-21T08:59:54.289Z,928.8
2019-05-21T09:00:55.727Z,928.8
2019-05-21T09:01:59.007Z,929
2019-05-21T09:02:58.543Z,928.9
2019-05-21T09:03:59.050Z,928.1
2019-05-21T09:05:00.171Z,929.1
2019-05-21T09:06:01.317Z,928.9
2019-05-21T09:07:02.444Z,929.1
2019-05-21T09:08:03.575Z,929.1
2019-05-21T09:09:04.701Z,929.1
2019-05-21T09:10:06.103Z,929.1
2019-05-21T09:11:07.521Z,929.1
2019-05-21T09:12:08.927Z,927.7
2019-05-21T09:13:10.321Z,929
2019-05-21T09:14:11.078Z,928.9
2019-05-21T09:15:12.469Z,929
2019-05-21T09:16:13.878Z,929
2019-05-21T09:17:15.017Z,929
2019-05-21T09:18:16.136Z,929.1
2019-05-21T09:19:17.537Z,929
2019-05-21T09:20:18.953Z,929
2019-05-21T09:21:20.338Z,928.9
2019-05-21T09:22:21.735Z,929.1
2019-05-21T09:23:23.142Z,929.1
2019-05-21T09:24:23.903Z,929
2019-05-21T09:25:25.316Z,929.2
2019-05-21T09:26:26.444Z,929.1
2019-05-21T09:27:27.577Z,929.1
2019-05-21T09:28:28.973Z,929.2
2019-05-21T09:29:30.365Z,929
2019-05-21T09:30:31.501Z,929.1
2019-05-21T09:31:32.631Z,929.1
2019-05-21T09:32:33.765Z,929.1
2019-05-21T09:33:34.888Z,929.1
2019-05-21T09:34:54.663Z,929.1
2019-05-21T09:35:36.910Z,929.1
2019-05-21T09:36:38.301Z,929.1
2019-05-21T09:37:39.431Z,929.1
2019-05-21T09:38:40.563Z,929.2
2019-05-21T09:39:41.967Z,929
2019-05-21T09:40:43.394Z,929.1
2019-05-21T09:41:44.788Z,929.1
2019-05-21T09:42:45.919Z,929.2
2019-05-21T09:43:47.311Z,929.1
2019-05-21T09:44:48.084Z,929.3
2019-05-21T09:45:49.481Z,929.2
2019-05-21T09:46:50.882Z,929.3
2019-05-21T09:47:52.015Z,929.3
2019-05-21T09:48:55.936Z,929.4
2019-05-21T09:49:54.270Z,929.4
2019-05-21T09:50:55.417Z,929.3
2019-05-21T09:51:56.828Z,929.4
2019-05-21T09:52:58.239Z,929.2
2019-05-21T09:53:59.626Z,929.4
2019-05-21T09:55:00.385Z,929.4
2019-05-21T09:56:01.793Z,929.3
2019-05-21T09:57:02.915Z,929.3
2019-05-21T09:58:04.320Z,929.4
2019-05-21T09:59:05.712Z,929.3
2019-05-21T10:00:06.854Z,929.4
2019-05-21T10:01:07.995Z,929.4
2019-05-21T10:02:12.640Z,929.5
2019-05-21T10:03:09.725Z,929.3
2019-05-21T10:04:10.866Z,929.5
2019-05-21T10:05:11.620Z,929.3
2019-05-21T10:06:13.037Z,929.5
2019-05-21T10:07:14.167Z,929.5
2019-05-21T10:08:15.301Z,929.5
2019-05-21T10:09:16.432Z,929.6
2019-05-21T10:10:17.573Z,929.5
2019-05-21T10:11:18.717Z,929.5
2019-05-21T10:12:20.130Z,929.5
2019-05-21T10:13:21.517Z,929.3
2019-05-21T10:14:22.909Z,929.5
2019-05-21T10:15:23.677Z,929.5
2019-05-21T10:16:25.103Z,929.3
2019-05-21T10:17:26.507Z,929.4
2019-05-21T10:18:27.895Z,929.5
2019-05-21T10:19:29.285Z,929.4
2019-05-21T10:20:30.683Z,929.5
2019-05-21T10:21:32.442Z,929.5
2019-05-21T10:22:32.819Z,929.5
2019-05-21T10:23:33.959Z,929.5
2019-05-21T10:24:35.087Z,929.5
2019-05-21T10:25:35.580Z,929.5
2019-05-21T10:26:37.019Z,929.5
2019-05-21T10:27:38.433Z,928.3
2019-05-21T10:28:39.809Z,929.5
2019-05-21T10:29:40.963Z,929.5
2019-05-21T10:30:42.071Z,929.6
2019-05-21T10:31:43.497Z,929.6
2019-05-21T10:32:44.894Z,929.4
2019-05-21T10:33:46.285Z,929.6
2019-05-21T10:34:47.675Z,929.6
2019-05-21T10:35:48.179Z,929.5
2019-05-21T10:36:49.367Z,929.6
2019-05-21T10:38:00.843Z,929.5
2019-05-21T10:38:51.891Z,929.5
2019-05-21T10:39:53.017Z,929.6
2019-05-21T10:40:54.139Z,929.7
2019-05-21T10:41:55.595Z,929.5
2019-05-21T10:42:56.719Z,929.7
2019-05-21T10:43:58.121Z,929.7
2019-05-21T10:44:59.513Z,929.6
2019-05-21T10:46:00.281Z,929.7
2019-05-21T10:47:01.703Z,929.7
2019-05-21T10:48:03.089Z,929.8
2019-05-21T10:49:04.492Z,929.7
2019-05-21T10:50:05.881Z,929.7
2019-05-21T10:51:07.272Z,929.7
2019-05-21T10:52:08.678Z,928.5
2019-05-21T10:53:09.811Z,929.7
2019-05-21T10:54:10.958Z,929.6
2019-05-21T10:55:15.297Z,929.5
2019-05-21T10:56:12.642Z,929.7
2019-05-21T10:57:14.043Z,929.6
2019-05-21T10:58:15.171Z,929.6
2019-05-21T10:59:16.294Z,929.6
2019-05-21T11:00:21.665Z,929.7
2019-05-21T11:01:18.732Z,929.7
2019-05-21T11:02:19.878Z,929.7
2019-05-21T11:03:21.408Z,929.7
2019-05-21T11:04:22.806Z,929.6
2019-05-21T11:05:23.970Z,929.7
2019-05-21T11:06:24.731Z,929.6
2019-05-21T11:07:26.163Z,929.6
2019-05-21T11:08:27.291Z,929.7
2019-05-21T11:09:28.409Z,929.7
2019-05-21T11:10:29.811Z,929.7
2019-05-21T11:11:30.948Z,929.7
2019-05-21T11:12:32.094Z,929.7
2019-05-21T11:13:33.486Z,929.6
2019-05-21T11:14:34.882Z,929.7
2019-05-21T11:15:36.279Z,929.7
2019-05-21T11:16:37.068Z,929.8
2019-05-21T11:17:49.902Z,929.7
2019-05-21T11:18:38.672Z,929.8
2019-05-21T11:19:39.798Z,929.7
2019-05-21T11:20:40.936Z,929.7
2019-05-21T11:21:42.333Z,929.8
2019-05-21T11:22:43.493Z,929.8
2019-05-21T11:23:44.913Z,929.8
2019-05-21T11:24:46.303Z,929.8
2019-05-21T11:25:47.433Z,929.9
2019-05-21T11:26:48.197Z,929.9
2019-05-21T11:27:49.349Z,930
2019-05-21T11:28:50.763Z,929.8
2019-05-21T11:29:51.887Z,929.9
2019-05-21T11:30:53.028Z,929.9
2019-05-21T11:32:03.136Z,929.9
2019-05-21T11:32:55.464Z,929.9
2019-05-21T11:33:56.598Z,929.9
2019-05-21T11:34:57.726Z,930
2019-05-21T11:35:59.124Z,929.9
2019-05-21T11:36:59.635Z,929.9
2019-05-21T11:38:00.767Z,929.8
2019-05-21T11:39:01.889Z,929.9
2019-05-21T11:40:03.022Z,930
2019-05-21T11:41:04.164Z,929.8
2019-05-21T11:42:05.292Z,929.9
2019-05-21T11:43:06.436Z,929.9
2019-05-21T11:44:07.833Z,929.9
2019-05-21T11:45:09.228Z,929.8
2019-05-21T11:46:10.620Z,929.9
2019-05-21T11:47:11.377Z,929.9
2019-05-21T11:48:12.865Z,930
2019-05-21T11:49:14.257Z,930
2019-05-21T11:50:15.660Z,930
2019-05-21T11:51:18.250Z,930
2019-05-21T11:52:17.635Z,929.9
2019-05-21T11:53:18.779Z,930
2019-05-21T11:54:19.915Z,930
2019-05-21T11:55:21.032Z,929.9
2019-05-21T11:56:22.172Z,930
2019-05-21T11:57:22.927Z,929.8
2019-05-21T11:58:24.557Z,929.9
2019-05-21T11:59:24.933Z,930
2019-05-21T12:00:27.274Z,929.9
2019-05-21T12:01:27.657Z,930
2019-05-21T12:02:29.051Z,929.9
2019-05-21T12:03:30.471Z,929.5
2019-05-21T12:04:31.891Z,930
2019-05-21T12:05:33.003Z,929.9
2019-05-21T12:06:34.127Z,930
2019-05-21T12:07:34.888Z,930
2019-05-21T12:08:36.299Z,929.9
2019-05-21T12:09:37.432Z,929.9
2019-05-21T12:10:38.558Z,929.9
2019-05-21T12:11:39.687Z,929.9
2019-05-21T12:12:40.822Z,930
2019-05-21T12:13:41.959Z,930
2019-05-21T12:14:43.088Z,930.1
2019-05-21T12:15:44.482Z,929.9
2019-05-21T12:16:46.018Z,930
2019-05-21T12:17:46.794Z,929.9
2019-05-21T12:18:48.198Z,929.9
2019-05-21T12:19:49.589Z,930
2019-05-21T12:20:50.734Z,930
2019-05-21T12:21:51.849Z,930
2019-05-21T12:22:53.246Z,929.9
2019-05-21T12:23:54.667Z,930
2019-05-21T12:24:56.053Z,930
2019-05-21T12:25:57.509Z,930
2019-05-21T12:26:58.634Z,930.1
2019-05-21T12:27:59.393Z,929.3
2019-05-21T12:29:00.817Z,929.9
2019-05-21T12:30:02.006Z,930.1
2019-05-21T12:31:03.379Z,930
2019-05-21T12:32:04.507Z,930.1
2019-05-21T12:33:05.642Z,930.1
2019-05-21T12:34:06.776Z,930
2019-05-21T12:35:07.905Z,930.1
2019-05-21T12:36:09.038Z,930.2
2019-05-21T12:37:10.161Z,930.1
2019-05-21T12:38:10.935Z,930
2019-05-21T12:39:14.437Z,929.9
2019-05-21T12:40:12.893Z,929.9
2019-05-21T12:41:14.156Z,930
2019-05-21T12:42:15.351Z,930
2019-05-21T12:43:16.734Z,930.2
2019-05-21T12:44:18.160Z,930.2
2019-05-21T12:45:19.552Z,930.2
2019-05-21T12:46:20.682Z,930.2
2019-05-21T12:47:21.814Z,930.2
2019-05-21T12:48:22.571Z,930.2
2019-05-21T12:49:23.714Z,930.1
2019-05-21T12:50:25.103Z,930.2
2019-05-21T12:51:26.240Z,930.3
2019-05-21T12:52:27.364Z,930.2
2019-05-21T12:53:28.753Z,930.3
2019-05-21T12:54:29.914Z,930.3
2019-05-21T12:55:31.296Z,930.3
2019-05-21T12:56:32.691Z,930.3
2019-05-21T12:57:34.088Z,930.2
2019-05-21T12:58:34.858Z,930.2
2019-05-21T12:59:36.344Z,930.3
2019-05-21T13:00:37.483Z,930.3
2019-05-21T13:01:38.603Z,930.4
2019-05-21T13:02:39.727Z,930.4
2019-05-21T13:03:40.856Z,930.4
2019-05-21T13:04:42.002Z,930.3
2019-05-21T13:05:43.392Z,930.3
2019-05-21T13:06:44.519Z,930.3
2019-05-21T13:07:45.656Z,930.3
2019-05-21T13:08:46.161Z,928.8
2019-05-21T13:09:47.587Z,930.2
2019-05-21T13:10:48.982Z,930.3
2019-05-21T13:11:50.373Z,929.5
2019-05-21T13:12:51.775Z,930.4